Time;durP1;ratioP1;P1;durP2;ratioP2;P2;SDS_P1;SDS_P2;PMS_P1;PMS_P2;Temp;Humidity;BMP_temperature;BMP_pressure;BME280_temperature;BME280_humidity;BME280_pressure;Samples;Min_cycle;Max_cycle;Signal;HPM_P1;HPM_P2
2023/10/10 00:01:02;;;;;;;5.90;1.80;;;;;;;13.49;36.02;100899.33;108171;1288;21994;-59
2023/10/10 00:03:31;;;;;;;4.20;1.30;;;;;;;13.48;36.01;100898.47;108150;1283;21989;-80
2023/10/10 00:06:00;;;;;;;4.80;1.50;;;;;;;13.48;36.05;100895.83;107398;1288;1002508;-81
2023/10/10 00:08:34;;;;;;;4.90;1.70;;;;;;;13.48;36.10;100888.42;108117;1286;22002;-80
2023/10/10 00:11:00;;;;;;;3.30;1.10;;;;;;;13.49;36.16;100890.52;108096;1288;22029;-78
2023/10/10 00:13:26;;;;;;;4.50;1.30;;;;;;;13.55;36.05;100889.03;108097;1288;22025;-79
2023/10/10 00:16:05;;;;;;;5.50;1.50;;;;;;;13.54;36.05;100885.67;108137;1285;21991;-59
2023/10/10 00:18:32;;;;;;;2.50;1.20;;;;;;;13.54;36.02;100882.69;108114;1285;21993;-59
2023/10/10 00:21:06;;;;;;;5.40;1.10;;;;;;;13.56;36.24;100879.30;108082;1277;21996;-59
2023/10/10 00:23:39;;;;;;;5.10;1.40;;;;;;;13.56;36.20;100874.18;108099;1286;22018;-72
2023/10/10 00:26:05;;;;;;;3.80;1.10;;;;;;;13.57;36.18;100868.53;108064;1286;22002;-59
2023/10/10 00:28:34;;;;;;;4.80;1.40;;;;;;;13.59;36.13;100861.80;108171;1280;22002;-80
2023/10/10 00:31:03;;;;;;;7.50;1.10;;;;;;;13.61;36.03;100862.82;108279;1286;21992;-59
2023/10/10 00:33:31;;;;;;;3.40;1.20;;;;;;;13.61;36.09;100858.77;108131;1286;21990;-77
2023/10/10 00:35:58;;;;;;;3.30;1.10;;;;;;;13.61;36.12;100857.90;108173;1287;21999;-80
2023/10/10 00:38:29;;;;;;;5.90;1.50;;;;;;;13.61;36.09;100852.77;108137;1279;21998;-58
2023/10/10 00:40:57;;;;;;;6.20;1.40;;;;;;;13.59;36.05;100851.05;108130;1276;22003;-80
2023/10/10 00:43:24;;;;;;;4.40;1.10;;;;;;;13.58;36.29;100845.79;108135;1286;22003;-80
2023/10/10 00:45:52;;;;;;;4.60;1.30;;;;;;;13.59;36.29;100842.23;108109;1283;21992;-59
2023/10/10 00:48:22;;;;;;;4.80;1.10;;;;;;;13.60;36.28;100843.27;107131;1286;1002246;-82
2023/10/10 00:51:05;;;;;;;6.90;1.60;;;;;;;13.62;36.32;100837.95;108113;1280;21995;-82
2023/10/10 00:53:33;;;;;;;3.30;1.10;;;;;;;13.65;36.27;100835.06;108219;1283;21993;-58
2023/10/10 00:55:59;;;;;;;4.00;1.10;;;;;;;13.66;36.32;100832.92;108187;1286;21963;-58
2023/10/10 00:58:35;;;;;;;5.80;1.30;;;;;;;13.69;36.34;100830.77;108184;1279;21996;-59
2023/10/10 01:01:07;;;;;;;3.00;1.20;;;;;;;13.71;36.42;100829.49;108172;1287;22001;-58
2023/10/10 01:03:35;;;;;;;8.70;1.90;;;;;;;13.75;36.42;100828.55;108124;1273;22000;-80
2023/10/10 01:06:05;;;;;;;5.00;1.40;;;;;;;13.76;36.26;100819.87;108160;1277;22001;-58
2023/10/10 01:08:51;;;;;;;4.40;1.20;;;;;;;13.79;36.28;100814.89;108112;1279;21997;-59
2023/10/10 01:11:17;;;;;;;4.40;1.20;;;;;;;13.80;36.28;100813.98;107363;1276;1002617;-80
2023/10/10 01:13:43;;;;;;;5.40;1.60;;;;;;;13.81;36.27;100813.60;108194;1277;22008;-58
2023/10/10 01:16:09;;;;;;;5.00;2.20;;;;;;;13.82;36.32;100814.66;108185;1285;22469;-59
2023/10/10 01:18:51;;;;;;;5.20;1.70;;;;;;;13.83;36.31;100812.70;108133;1280;22004;-58
2023/10/10 01:21:30;;;;;;;7.70;2.30;;;;;;;13.87;36.39;100812.98;108090;1286;21999;-58
2023/10/10 01:24:11;;;;;;;6.00;1.80;;;;;;;13.91;36.33;100816.08;108146;1286;22012;-58
2023/10/10 01:26:44;;;;;;;4.20;1.90;;;;;;;13.95;36.25;100818.65;108106;1286;22082;-59
2023/10/10 01:31:45;;;;;;;3.70;1.40;;;;;;;13.97;36.18;100817.54;108115;1286;22030;-58
2023/10/10 01:34:30;;;;;;;5.80;1.60;;;;;;;14.00;36.26;100820.67;108124;1273;21988;-80
2023/10/10 01:37:00;;;;;;;3.10;1.50;;;;;;;14.03;36.27;100819.03;108101;1286;22012;-59
2023/10/10 01:39:53;;;;;;;3.80;1.90;;;;;;;14.04;36.15;100819.00;108100;1286;22031;-79
2023/10/10 01:42:27;;;;;;;3.60;1.50;;;;;;;14.07;36.07;100816.84;108178;1283;22106;-81
2023/10/10 01:44:57;;;;;;;7.10;1.60;;;;;;;14.10;36.18;100812.02;108153;1287;21994;-58
2023/10/10 01:47:26;;;;;;;3.80;1.50;;;;;;;14.12;36.06;100807.73;108108;1286;21992;-80
2023/10/10 01:49:54;;;;;;;5.00;1.60;;;;;;;14.15;36.03;100804.32;108179;1279;22461;-83
2023/10/10 01:52:21;;;;;;;3.50;1.80;;;;;;;14.15;35.97;100806.26;108194;1286;21992;-81
2023/10/10 01:54:52;;;;;;;3.10;1.00;;;;;;;14.12;35.81;100810.91;108156;1286;22461;-58
2023/10/10 01:57:22;;;;;;;2.70;1.30;;;;;;;14.10;35.77;100811.48;108111;1279;21998;-81
2023/10/10 01:59:48;;;;;;;5.10;1.80;;;;;;;14.09;35.77;100813.27;108144;1285;23057;-59
2023/10/10 02:02:18;;;;;;;3.70;1.10;;;;;;;14.07;35.84;100814.89;108191;1286;21996;-81
2023/10/10 02:04:44;;;;;;;6.70;1.90;;;;;;;14.05;35.72;100815.46;108230;1279;21984;-58
2023/10/10 02:07:23;;;;;;;5.20;1.30;;;;;;;14.03;35.70;100813.39;108109;1286;21992;-59
2023/10/10 02:12:34;;;;;;;4.40;1.40;;;;;;;13.99;35.69;100816.98;108165;1280;22039;-80
2023/10/10 02:15:01;;;;;;;4.30;1.40;;;;;;;13.97;35.79;100815.25;108148;1276;22000;-60
2023/10/10 02:17:29;;;;;;;5.00;1.60;;;;;;;13.96;35.64;100814.73;108116;1286;21992;-79
2023/10/10 02:21:05;;;;;;;4.70;1.10;;;;;;;13.95;35.56;100819.54;108226;1286;22033;-80
2023/10/10 02:28:10;;;;;;;7.60;1.50;;;;;;;13.87;35.51;100823.56;108236;1285;22007;-58
2023/10/10 02:30:37;;;;;;;7.70;1.30;;;;;;;13.85;35.55;100829.06;108197;1279;21992;-59
2023/10/10 02:33:14;;;;;;;5.00;1.30;;;;;;;13.83;35.42;100831.73;108241;1286;21992;-79
2023/10/10 02:35:57;;;;;;;2.70;1.20;;;;;;;13.82;35.47;100839.71;108282;1276;21988;-59
2023/10/10 02:38:32;;;;;;;6.40;1.30;;;;;;;13.80;35.50;100841.32;108228;1276;21992;-80
2023/10/10 02:46:40;;;;;;;3.00;1.20;;;;;;;13.77;35.52;100839.80;108108;1286;22000;-78
2023/10/10 02:49:13;;;;;;;3.60;1.30;;;;;;;13.75;35.57;100838.60;108252;1286;21991;-59
2023/10/10 02:51:48;;;;;;;3.80;1.30;;;;;;;13.74;35.57;100837.39;108235;1276;21995;-80
2023/10/10 02:57:26;;;;;;;8.30;1.60;;;;;;;13.74;35.57;100826.10;108106;1286;22003;-79
2023/10/10 03:02:56;;;;;;;4.10;1.30;;;;;;;13.72;35.47;100829.30;108184;1280;21996;-78
2023/10/10 03:05:44;;;;;;;4.40;1.50;;;;;;;13.71;35.47;100833.02;108297;1286;21991;-59
2023/10/10 03:08:14;;;;;;;5.00;1.70;;;;;;;13.71;35.59;100837.07;108182;1280;21987;-59
2023/10/10 03:13:47;;;;;;;9.10;2.00;;;;;;;13.66;35.55;100835.95;107898;1286;21999;-58
2023/10/10 03:21:51;;;;;;;5.60;1.10;;;;;;;13.62;35.39;100841.13;107713;1287;21992;-76
2023/10/10 03:29:21;;;;;;;6.40;1.70;;;;;;;13.60;35.41;100847.15;108227;1287;23055;-58
2023/10/10 03:31:50;;;;;;;6.20;1.50;;;;;;;13.59;35.33;100846.63;108215;1286;22056;-78
2023/10/10 03:34:29;;;;;;;11.90;1.60;;;;;;;13.59;35.32;100846.46;108164;1285;21998;-78
2023/10/10 03:37:20;;;;;;;5.40;1.00;;;;;;;13.59;35.24;100848.03;108074;1276;21990;-78
2023/10/10 03:39:53;;;;;;;3.40;1.20;;;;;;;13.59;35.19;100849.09;108055;1286;22232;-78
2023/10/10 05:24:24;;;;;;;3.90;1.80;;;;;;;13.88;35.48;100955.32;108124;1286;21993;-57
2023/10/10 05:26:54;;;;;;;5.90;1.70;;;;;;;13.88;35.48;100957.97;108086;1287;22004;-71
2023/10/10 05:29:20;;;;;;;5.30;1.60;;;;;;;13.89;35.52;100959.72;108136;1282;22017;-58
2023/10/10 05:31:46;;;;;;;8.30;2.30;;;;;;;13.90;35.49;100959.52;108128;1287;21996;-57
2023/10/10 05:34:14;;;;;;;5.40;2.20;;;;;;;13.92;35.42;100960.72;108136;1287;22002;-72
2023/10/10 05:36:42;;;;;;;7.10;1.60;;;;;;;13.94;35.42;100962.96;108118;1287;22003;-68
2023/10/10 05:39:11;;;;;;;9.10;2.00;;;;;;;13.96;35.47;100958.34;108189;1287;22004;-56
2023/10/10 05:41:40;;;;;;;6.50;2.00;;;;;;;14.00;35.52;100960.23;108098;1283;21979;-70
2023/10/10 05:44:07;;;;;;;6.60;1.70;;;;;;;14.02;35.39;100960.91;108108;1287;21996;-57
2023/10/10 05:46:34;;;;;;;10.70;2.20;;;;;;;14.04;35.44;100964.58;108113;1287;22036;-70
2023/10/10 05:49:00;;;;;;;5.40;2.20;;;;;;;14.06;35.30;100961.72;107358;1283;1003175;-59
2023/10/10 05:51:26;;;;;;;8.00;2.00;;;;;;;14.07;35.32;100964.35;108112;1283;21996;-69
2023/10/10 05:53:52;;;;;;;11.20;2.70;;;;;;;14.08;35.29;100966.28;108097;1287;21982;-57
2023/10/10 05:56:17;;;;;;;10.30;2.20;;;;;;;14.08;35.24;100971.38;108094;1282;22045;-58
2023/10/10 05:58:43;;;;;;;9.00;2.30;;;;;;;14.07;35.27;100975.82;108108;1280;22001;-57
2023/10/10 06:01:12;;;;;;;13.10;2.20;;;;;;;14.05;35.25;100980.95;108094;1281;22014;-60
2023/10/10 06:03:40;;;;;;;7.80;2.10;;;;;;;14.06;35.12;100983.60;108119;1281;21990;-58
2023/10/10 06:06:06;;;;;;;7.00;2.20;;;;;;;14.08;35.28;100981.63;108133;1282;21997;-58
2023/10/10 06:08:31;;;;;;;7.60;2.30;;;;;;;14.09;35.18;100981.96;108084;1287;22001;-71
2023/10/10 06:10:58;;;;;;;5.50;1.70;;;;;;;14.10;35.16;100982.98;108103;1282;21994;-57
2023/10/10 06:13:24;;;;;;;11.40;1.80;;;;;;;14.12;35.25;100987.20;108158;1287;22006;-58
2023/10/10 06:15:50;;;;;;;8.30;1.80;;;;;;;14.14;35.36;100989.64;108121;1285;24334;-67
2023/10/10 06:18:17;;;;;;;4.10;1.40;;;;;;;14.15;35.26;100992.27;108161;1283;22012;-70
2023/10/10 06:20:44;;;;;;;9.90;2.10;;;;;;;14.15;35.23;101001.08;108162;1288;22059;-58
2023/10/10 06:23:11;;;;;;;8.10;2.00;;;;;;;14.18;35.16;100999.98;108098;1281;22004;-58
2023/10/10 06:25:37;;;;;;;7.40;1.60;;;;;;;14.20;35.17;100999.92;108082;1287;21992;-71
2023/10/10 06:28:06;;;;;;;4.80;1.70;;;;;;;14.22;35.24;100999.55;108132;1287;22005;-70
2023/10/10 06:30:36;;;;;;;7.60;2.20;;;;;;;14.25;35.25;100997.38;108128;1285;23402;-69
2023/10/10 06:33:10;;;;;;;;;;;;;;;14.28;35.27;100997.33;108098;1283;21987;-70
2023/10/10 06:35:39;;;;;;;7.80;1.80;;;;;;;14.31;35.17;100995.16;108105;1281;21991;-58
2023/10/10 06:38:12;;;;;;;10.50;2.20;;;;;;;14.34;35.19;100994.40;108096;1276;22461;-58
2023/10/10 06:40:52;;;;;;;4.80;1.60;;;;;;;14.38;35.20;100997.67;108091;1287;21989;-72
2023/10/10 06:43:21;;;;;;;8.40;2.60;;;;;;;14.42;35.09;100995.84;108124;1282;21991;-57
2023/10/10 06:45:54;;;;;;;8.40;2.30;;;;;;;14.47;35.12;100996.13;108112;1283;21992;-73
2023/10/10 06:48:23;;;;;;;10.40;2.20;;;;;;;14.54;35.23;100996.70;108106;1276;21993;-57
2023/10/10 06:50:49;;;;;;;10.00;2.10;;;;;;;14.60;35.09;100998.15;108083;1287;22461;-58
2023/10/10 06:53:35;;;;;;;11.20;2.40;;;;;;;14.66;35.13;100993.12;108092;1276;22047;-57
2023/10/10 06:56:14;;;;;;;9.20;2.10;;;;;;;14.74;35.08;100992.83;108093;1282;22461;-70
2023/10/10 06:58:46;;;;;;;6.00;2.00;;;;;;;14.83;35.16;100994.73;108091;1279;22020;-58
2023/10/10 07:01:12;;;;;;;13.40;2.50;;;;;;;14.92;35.08;100993.68;108126;1286;22001;-70
2023/10/10 07:03:46;;;;;;;13.30;2.10;;;;;;;14.99;35.00;100996.91;108072;1281;22000;-70
2023/10/10 07:06:12;;;;;;;13.50;5.40;;;;;;;15.05;34.92;100997.48;108089;1282;22456;-57
2023/10/10 07:08:38;;;;;;;16.20;3.20;;;;;;;15.10;34.82;100997.38;108146;1288;22168;-73
2023/10/10 07:11:04;;;;;;;7.60;2.00;;;;;;;15.14;34.80;101001.70;108087;1281;21990;-60
2023/10/10 07:13:30;;;;;;;6.70;2.30;;;;;;;15.20;34.83;101003.88;108081;1276;21992;-71
2023/10/10 07:15:56;;;;;;;9.90;1.80;;;;;;;15.27;34.90;101007.97;108109;1279;22072;-71
2023/10/10 07:18:22;;;;;;;10.70;2.00;;;;;;;15.32;34.76;101005.74;108148;1281;21990;-72
2023/10/10 07:21:04;;;;;;;11.70;1.80;;;;;;;15.38;34.90;101005.09;108125;1286;21993;-59
2023/10/10 07:23:37;;;;;;;7.80;2.20;;;;;;;15.45;34.78;101002.62;108074;1282;22008;-72
2023/10/10 07:26:19;;;;;;;6.80;1.80;;;;;;;15.51;34.77;101003.02;108117;1276;23040;-58
2023/10/10 07:28:48;;;;;;;8.70;3.50;;;;;;;15.57;34.68;101009.61;108102;1285;21966;-57
2023/10/10 07:31:23;;;;;;;11.50;3.40;;;;;;;15.64;34.55;101009.81;108130;1283;21989;-71
2023/10/10 07:33:56;;;;;;;16.10;7.40;;;;;;;15.73;34.66;101010.30;108156;1287;21993;-57
2023/10/10 07:36:27;;;;;;;7.40;3.20;;;;;;;15.81;34.55;101010.11;108115;1283;21996;-58
2023/10/10 07:38:55;;;;;;;8.10;2.50;;;;;;;15.90;34.51;101009.04;108123;1286;22202;-57
2023/10/10 07:41:27;;;;;;;7.80;2.20;;;;;;;15.95;34.39;101009.45;108083;1286;22461;-57
2023/10/10 07:43:58;;;;;;;6.70;2.30;;;;;;;16.01;34.41;101013.73;108079;1286;21993;-57
2023/10/10 07:46:27;;;;;;;6.80;1.70;;;;;;;16.08;34.34;101021.34;108129;1286;22005;-70
2023/10/10 07:48:56;;;;;;;6.20;1.90;;;;;;;16.13;34.29;101024.92;108255;1279;21993;-57
2023/10/10 07:51:34;;;;;;;11.00;2.00;;;;;;;16.15;34.29;101029.65;108123;1282;21994;-58
2023/10/10 07:54:11;;;;;;;6.00;1.60;;;;;;;16.20;34.22;101030.78;108131;1286;22009;-71
2023/10/10 07:56:44;;;;;;;6.70;1.70;;;;;;;16.27;34.22;101030.27;108086;1286;21993;-70
2023/10/10 07:59:12;;;;;;;4.90;1.60;;;;;;;16.34;34.16;101029.70;108089;1279;21990;-57
2023/10/10 08:01:41;;;;;;;5.90;1.80;;;;;;;16.44;34.10;101031.95;108274;1280;21989;-58
2023/10/10 08:04:07;;;;;;;5.00;1.60;;;;;;;16.51;33.97;101034.06;108142;1286;21990;-57
2023/10/10 08:06:33;;;;;;;5.20;1.80;;;;;;;16.56;33.92;101036.23;108079;1276;22029;-57
2023/10/10 08:11:44;;;;;;;12.30;2.30;;;;;;;16.66;33.81;101034.90;108172;1276;21973;-58
2023/10/10 08:14:10;;;;;;;8.60;2.00;;;;;;;16.68;33.81;101036.96;108116;1286;22030;-58
2023/10/10 08:16:40;;;;;;;8.70;2.10;;;;;;;16.70;33.74;101036.73;108081;1287;21989;-58
2023/10/10 08:19:08;;;;;;;9.20;2.50;;;;;;;16.74;33.64;101034.33;108148;1286;21992;-72
2023/10/10 08:21:38;;;;;;;4.70;1.90;;;;;;;16.81;33.70;101034.48;108109;1279;22055;-58
2023/10/10 08:24:07;;;;;;;6.40;1.80;;;;;;;16.90;33.69;101036.19;108098;1282;22070;-58
2023/10/10 08:26:40;;;;;;;5.10;1.60;;;;;;;16.96;33.49;101036.73;108113;1286;21993;-58
2023/10/10 08:29:10;;;;;;;9.70;2.00;;;;;;;17.03;33.22;101037.27;108075;1286;21990;-72
2023/10/10 08:31:37;;;;;;;7.00;1.40;;;;;;;17.09;33.28;101034.79;108101;1280;21992;-72
2023/10/10 08:34:03;;;;;;;6.50;1.50;;;;;;;17.16;33.25;101036.40;108085;1277;21993;-73
2023/10/10 08:36:29;;;;;;;7.90;1.90;;;;;;;17.25;33.24;101036.45;108202;1284;22003;-74
2023/10/10 08:38:56;;;;;;;5.00;1.40;;;;;;;17.37;33.08;101036.80;108070;1282;22465;-73
2023/10/10 08:41:26;;;;;;;7.80;1.60;;;;;;;17.47;32.94;101038.45;108107;1282;22011;-72
2023/10/10 08:44:01;;;;;;;5.30;1.60;;;;;;;17.55;32.79;101034.15;108089;1286;22003;-58
2023/10/10 08:46:30;;;;;;;7.50;1.70;;;;;;;17.64;32.75;101031.55;108070;1286;22177;-58
2023/10/10 08:48:58;;;;;;;6.20;2.00;;;;;;;17.76;32.93;101032.77;108103;1286;22045;-57
2023/10/10 08:51:32;;;;;;;5.60;1.50;;;;;;;17.90;32.78;101031.60;107356;1286;1003126;-57
2023/10/10 08:54:01;;;;;;;7.00;1.60;;;;;;;18.07;32.43;101033.40;108020;1286;21998;-71
2023/10/10 08:56:28;;;;;;;4.00;1.40;;;;;;;18.20;32.28;101033.86;107977;1286;22001;-57
2023/10/10 08:58:54;;;;;;;7.20;1.40;;;;;;;18.36;32.28;101034.91;108956;1285;22011;-57
2023/10/10 09:01:20;;;;;;;7.80;1.70;;;;;;;18.56;32.18;101037.44;108066;1283;22001;-59
2023/10/10 09:03:46;;;;;;;6.70;1.80;;;;;;;18.72;31.78;101034.91;108123;1285;22179;-70
2023/10/10 09:06:19;;;;;;;5.10;1.40;;;;;;;18.85;31.76;101035.70;108069;1282;23124;-70
2023/10/10 09:08:47;;;;;;;6.40;1.90;;;;;;;18.95;31.45;101038.91;108123;1283;21990;-58
2023/10/10 09:11:23;;;;;;;5.00;1.50;;;;;;;19.08;31.35;101034.34;108150;1280;22218;-70
2023/10/10 09:13:52;;;;;;;4.60;1.40;;;;;;;19.19;30.98;101036.98;108265;1286;21995;-69
2023/10/10 09:16:40;;;;;;;5.40;1.70;;;;;;;19.25;31.02;101037.95;108163;1273;23650;-57
2023/10/10 09:19:08;;;;;;;4.40;1.30;;;;;;;19.40;30.94;101036.50;108124;1286;22030;-58
2023/10/10 09:21:50;;;;;;;6.80;1.20;;;;;;;19.50;30.41;101032.40;109981;1279;22113;-69
2023/10/10 09:24:28;;;;;;;3.90;1.20;;;;;;;19.62;30.45;101033.02;107728;1288;22003;-57
2023/10/10 09:26:56;;;;;;;8.00;1.20;;;;;;;19.84;30.47;101028.91;108005;1281;22046;-58
2023/10/10 09:29:34;;;;;;;5.90;1.40;;;;;;;20.09;30.24;101028.30;109453;1286;22014;-72
2023/10/10 09:32:01;;;;;;;5.70;1.70;;;;;;;20.25;30.29;101032.41;108116;1286;22003;-70
2023/10/10 09:34:35;;;;;;;4.10;1.30;;;;;;;20.45;29.70;101031.41;108101;1279;22012;-71
2023/10/10 09:37:05;;;;;;;4.30;1.00;;;;;;;20.49;29.45;101024.98;108186;1286;22033;-57
2023/10/10 09:39:36;;;;;;;7.30;1.40;;;;;;;20.48;29.60;101023.96;108149;1286;21983;-69
2023/10/10 09:44:53;;;;;;;6.30;1.70;;;;;;;20.58;29.61;101015.87;108099;1285;22006;-70
2023/10/10 09:52:57;;;;;;;7.20;2.30;;;;;;;20.88;28.97;101012.05;108073;1276;21992;-72
2023/10/10 10:06:01;;;;;;;7.00;1.70;;;;;;;21.52;28.52;100994.30;108112;1286;21994;-72
2023/10/10 10:08:42;;;;;;;7.60;1.70;;;;;;;21.67;28.44;100996.60;108161;1283;21994;-63
2023/10/10 10:11:11;;;;;;;3.00;1.30;;;;;;;21.78;28.11;100991.05;108107;1285;21999;-68
2023/10/10 10:14:17;;;;;;;6.80;1.80;;;;;;;21.87;27.68;100987.80;108125;1276;22034;-68
2023/10/10 10:16:46;;;;;;;7.00;2.00;;;;;;;21.97;27.72;100985.66;108088;1287;21965;-69
2023/10/10 10:19:17;;;;;;;7.80;1.60;;;;;;;22.11;28.20;100985.69;108097;1282;22017;-56
2023/10/10 10:21:54;;;;;;;4.70;2.10;;;;;;;22.38;28.35;100986.10;108078;1280;23056;-68
2023/10/10 10:24:30;;;;;;;10.80;1.90;;;;;;;22.57;27.62;100982.09;108101;1286;22002;-71
2023/10/10 10:27:23;;;;;;;4.50;1.70;;;;;;;22.57;27.10;100975.45;108107;1286;21990;-57
2023/10/10 10:29:53;;;;;;;6.70;1.60;;;;;;;22.61;26.96;100976.34;108118;1287;21998;-57
2023/10/10 10:32:23;;;;;;;6.00;2.10;;;;;;;22.64;26.96;100974.92;108118;1281;22000;-57
2023/10/10 10:34:58;;;;;;;3.90;2.00;;;;;;;22.66;26.49;100971.73;108082;1286;23121;-56
2023/10/10 10:37:25;;;;;;;8.20;1.90;;;;;;;22.61;26.60;100969.72;107872;1286;23803;-68
2023/10/10 10:42:46;;;;;;;15.90;2.50;;;;;;;22.63;26.45;100965.51;108137;1277;21993;-69
2023/10/10 10:45:34;;;;;;;11.10;2.40;;;;;;;22.72;26.77;100963.78;108060;1286;23615;-56
2023/10/10 10:47:59;;;;;;;7.00;2.20;;;;;;;22.90;26.97;100966.39;108207;1286;22226;-57
2023/10/10 10:50:29;;;;;;;5.30;2.00;;;;;;;23.04;26.82;100961.66;108122;1286;21995;-68
2023/10/10 10:52:59;;;;;;;4.70;1.70;;;;;;;23.10;26.43;100960.29;108144;1286;22005;-57
2023/10/10 10:55:28;;;;;;;7.50;2.20;;;;;;;23.04;26.03;100962.75;108149;1286;22011;-57
2023/10/10 10:58:08;;;;;;;7.70;2.00;;;;;;;23.05;26.72;100960.89;108033;1283;21996;-57
2023/10/10 11:03:24;;;;;;;;;;;;;;;23.44;26.09;100947.85;108114;1279;21974;-68
2023/10/10 11:05:54;;;;;;;4.30;1.40;;;;;;;23.47;25.82;100951.27;108131;1286;21991;-58
2023/10/10 11:08:51;;;;;;;4.60;1.00;;;;;;;23.35;25.47;100946.02;108138;1286;21996;-68
2023/10/10 11:14:23;;;;;;;4.30;1.30;;;;;;;23.14;25.64;100941.45;108126;1286;22000;-68
2023/10/10 11:16:56;;;;;;;10.10;2.40;;;;;;;23.11;25.82;100939.47;108131;1286;22174;-67
2023/10/10 11:21:48;;;;;;;5.00;1.40;;;;;;;23.00;25.61;100938.97;108200;1286;21990;-68
2023/10/10 11:24:36;;;;;;;5.10;1.60;;;;;;;22.95;25.76;100932.27;108180;1286;21999;-68
2023/10/10 11:29:47;;;;;;;3.50;1.60;;;;;;;23.15;26.31;100929.93;108155;1286;22003;-57
2023/10/10 11:32:24;;;;;;;5.70;1.60;;;;;;;23.42;26.45;100926.79;108051;1287;24339;-57
2023/10/10 11:34:51;;;;;;;7.80;1.70;;;;;;;23.77;25.79;100928.73;108126;1287;23045;-68
2023/10/10 11:37:20;;;;;;;3.00;1.20;;;;;;;23.90;26.07;100924.94;107971;1282;21993;-57
2023/10/10 11:39:47;;;;;;;49.50;19.60;;;;;;;24.02;25.85;100924.39;108120;1287;21994;-68
2023/10/10 11:42:24;;;;;;;19.70;8.10;;;;;;;24.12;26.01;100926.14;108142;1286;21995;-57
2023/10/10 11:45:10;;;;;;;38.60;20.40;;;;;;;24.29;26.15;100925.30;106647;1288;1003142;-57
2023/10/10 11:47:44;;;;;;;10.50;4.80;;;;;;;24.40;25.69;100931.83;108087;1287;21998;-69
2023/10/10 11:50:12;;;;;;;7.50;2.50;;;;;;;24.33;25.61;100932.05;108179;1276;22031;-69
2023/10/10 11:52:54;;;;;;;5.70;2.00;;;;;;;24.33;25.53;100937.42;108135;1288;22033;-60
2023/10/10 11:55:20;;;;;;;7.80;2.00;;;;;;;24.34;25.43;100939.67;108187;1279;22324;-57
2023/10/10 11:57:50;;;;;;;8.00;1.80;;;;;;;24.25;25.59;100930.16;108145;1286;21991;-57
2023/10/10 12:00:22;;;;;;;5.60;2.10;;;;;;;24.24;25.80;100927.40;108047;1279;21971;-57
2023/10/10 12:02:49;;;;;;;5.70;1.30;;;;;;;24.30;25.68;100928.13;108115;1286;22066;-68
2023/10/10 12:07:58;;;;;;;7.00;1.60;;;;;;;24.18;25.60;100925.77;108134;1286;21990;-69
2023/10/10 12:10:39;;;;;;;7.80;2.80;;;;;;;24.17;25.57;100929.98;108181;1279;23660;-58
2023/10/10 12:13:09;;;;;;;6.00;2.30;;;;;;;24.17;25.60;100933.20;108151;1280;23376;-57
2023/10/10 12:15:44;;;;;;;4.90;2.00;;;;;;;24.19;25.39;100932.02;108123;1285;21998;-70
2023/10/10 12:18:10;;;;;;;9.70;2.10;;;;;;;24.10;25.37;100935.73;108294;1286;22003;-58
2023/10/10 12:20:37;;;;;;;3.90;1.80;;;;;;;24.05;25.29;100937.52;108116;1286;22004;-69
2023/10/10 12:23:03;;;;;;;6.50;2.00;;;;;;;24.04;25.34;100941.17;108170;1286;21996;-70
2023/10/10 12:25:29;;;;;;;8.20;1.90;;;;;;;23.95;24.91;100946.14;108252;1286;22066;-57
2023/10/10 12:28:00;;;;;;;3.60;1.70;;;;;;;23.82;24.83;100950.30;108077;1286;22250;-58
2023/10/10 12:30:26;;;;;;;3.80;1.90;;;;;;;23.67;24.80;100945.27;108116;1276;22000;-69
2023/10/10 12:32:52;;;;;;;5.30;1.80;;;;;;;23.56;25.00;100946.27;108103;1283;21993;-57
2023/10/10 12:35:23;;;;;;;4.00;2.00;;;;;;;23.54;24.97;100948.15;108157;1276;21989;-69
2023/10/10 12:37:49;;;;;;;3.40;1.70;;;;;;;23.50;25.09;100944.98;108197;1281;21998;-70
2023/10/10 12:40:15;;;;;;;5.70;2.10;;;;;;;23.54;24.58;100946.54;108182;1286;21992;-59
2023/10/10 12:42:40;;;;;;;5.30;1.60;;;;;;;23.47;24.47;100945.30;108144;1282;21990;-69
2023/10/10 12:45:07;;;;;;;4.50;1.80;;;;;;;23.38;24.78;100944.04;108176;1286;23616;-70
2023/10/10 12:47:33;;;;;;;7.40;1.90;;;;;;;23.29;24.78;100944.21;108146;1284;21999;-59
2023/10/10 12:50:00;;;;;;;5.80;2.50;;;;;;;23.11;24.87;100949.81;108108;1286;22463;-70
2023/10/10 12:52:34;;;;;;;5.60;2.00;;;;;;;22.91;24.68;100950.77;108104;1288;22031;-58
2023/10/10 12:55:09;;;;;;;6.40;2.00;;;;;;;22.64;24.94;100953.45;108067;1288;22049;-69
2023/10/10 12:57:36;;;;;;;5.80;2.60;;;;;;;22.37;25.10;100955.73;108112;1288;23472;-69
2023/10/10 13:02:47;;;;;;;4.80;1.90;;;;;;;21.78;25.21;100964.12;108231;1286;22010;-58
2023/10/10 13:05:12;;;;;;;6.60;2.10;;;;;;;21.55;25.39;100964.69;108109;1286;21999;-60
2023/10/10 13:07:41;;;;;;;5.00;1.90;;;;;;;21.49;25.58;100970.13;108149;1286;21995;-58
2023/10/10 13:10:10;;;;;;;3.90;1.90;;;;;;;21.50;25.60;100971.86;108126;1286;21994;-58
2023/10/10 13:12:45;;;;;;;8.40;2.10;;;;;;;21.50;25.46;100970.42;108170;1284;22850;-70
2023/10/10 13:15:18;;;;;;;4.50;1.80;;;;;;;21.51;25.47;100966.48;108167;1286;22007;-58
2023/10/10 13:17:50;;;;;;;6.00;1.90;;;;;;;21.48;25.32;100967.87;108180;1286;21999;-58
2023/10/10 13:20:17;;;;;;;6.30;2.20;;;;;;;21.46;25.57;100971.73;108205;1276;21985;-58
2023/10/10 13:22:43;;;;;;;8.20;2.50;;;;;;;21.52;25.69;100976.08;108142;1277;22059;-69
2023/10/10 13:25:10;;;;;;;8.60;2.50;;;;;;;21.57;25.44;100975.64;108136;1279;22046;-59
2023/10/10 13:27:36;;;;;;;3.90;1.90;;;;;;;21.59;25.50;100972.86;108187;1287;21999;-57
2023/10/10 13:30:03;;;;;;;3.90;1.90;;;;;;;21.60;25.43;100976.41;108180;1286;22006;-58
2023/10/10 13:32:29;;;;;;;13.20;2.00;;;;;;;21.61;25.26;100976.17;108193;1286;21995;-69
2023/10/10 13:34:55;;;;;;;7.30;1.90;;;;;;;21.54;25.37;100978.09;108128;1276;21996;-57
2023/10/10 13:37:22;;;;;;;8.60;1.90;;;;;;;21.49;25.51;100982.98;108147;1286;21998;-57
2023/10/10 13:39:48;;;;;;;4.30;1.80;;;;;;;21.47;25.42;100979.32;108135;1286;21990;-68
2023/10/10 13:42:14;;;;;;;5.80;1.70;;;;;;;21.40;25.41;100980.20;108131;1280;23656;-69
2023/10/10 13:44:40;;;;;;;4.80;1.60;;;;;;;21.36;25.69;100975.41;108106;1286;22000;-57
2023/10/10 13:47:07;;;;;;;5.50;1.80;;;;;;;21.35;25.73;100979.73;108097;1286;22012;-69
2023/10/10 13:49:34;;;;;;;4.50;1.70;;;;;;;21.31;25.46;100981.17;108160;1279;21990;-71
2023/10/10 13:52:04;;;;;;;5.90;1.90;;;;;;;21.23;25.37;100983.88;108132;1286;23714;-57
2023/10/10 13:54:30;;;;;;;5.10;1.60;;;;;;;21.01;25.36;100989.17;108201;1286;22012;-69
2023/10/10 13:56:56;;;;;;;5.70;2.30;;;;;;;20.74;25.46;100993.95;108174;1280;21986;-70
2023/10/10 13:59:22;;;;;;;8.20;2.10;;;;;;;20.46;25.58;100992.84;108114;1280;21998;-58
2023/10/10 14:01:47;;;;;;;4.60;1.40;;;;;;;20.21;25.79;100999.45;108095;1287;22463;-57
2023/10/10 14:04:15;;;;;;;6.20;2.50;;;;;;;20.00;26.01;101005.13;108085;1286;22112;-57
2023/10/10 14:06:48;;;;;;;5.40;2.00;;;;;;;19.84;26.06;101006.86;108098;1286;23064;-69
2023/10/10 14:09:32;;;;;;;6.70;2.00;;;;;;;19.70;26.12;101007.77;108195;1276;21989;-69
2023/10/10 14:12:02;;;;;;;5.50;2.20;;;;;;;19.57;26.21;101010.96;108176;1286;21990;-58
2023/10/10 14:14:28;;;;;;;32.80;4.10;;;;;;;19.49;26.30;101016.62;108128;1286;21998;-57
2023/10/10 14:16:54;;;;;;;13.10;2.10;;;;;;;19.43;26.38;101020.05;108079;1279;22032;-70
2023/10/10 14:19:23;;;;;;;10.00;2.20;;;;;;;19.35;26.46;101026.04;108106;1288;21990;-58
2023/10/10 14:21:52;;;;;;;12.10;4.40;;;;;;;19.29;26.64;101029.83;108087;1287;22463;-58
2023/10/10 14:24:18;;;;;;;7.80;2.10;;;;;;;19.25;26.73;101032.30;108131;1287;22002;-56
2023/10/10 14:26:44;;;;;;;4.20;1.50;;;;;;;19.21;26.65;101037.80;108150;1287;22006;-70
2023/10/10 14:29:12;;;;;;;5.00;1.30;;;;;;;19.13;26.62;101041.10;108108;1286;22005;-68
2023/10/10 14:31:44;;;;;;;8.30;2.10;;;;;;;19.04;26.66;101047.30;108167;1286;21991;-57